sensor_id;sensor_type;location;lat;lon;timestamp;temperature;humidity
52509;DHT22;38420;53.150;6.370;2024-03-02T00:00:05;7.70;99.90
52509;DHT22;38420;53.150;6.370;2024-03-02T00:02:46;7.80;99.90
52509;DHT22;38420;53.150;6.370;2024-03-02T00:05:16;7.80;99.90
52509;DHT22;38420;53.150;6.370;2024-03-02T00:07:43;7.80;99.90
52509;DHT22;38420;53.150;6.370;2024-03-02T00:10:14;7.80;99.90
52509;DHT22;38420;53.150;6.370;2024-03-02T00:12:41;7.80;99.90
52509;DHT22;38420;53.150;6.370;2024-03-02T00:17:56;7.70;99.90
52509;DHT22;38420;53.150;6.370;2024-03-02T00:20:23;7.70;99.90
52509;DHT22;38420;53.150;6.370;2024-03-02T00:22:52;7.70;99.90
52509;DHT22;38420;53.150;6.370;2024-03-02T00:25:18;7.70;99.90
52509;DHT22;38420;53.150;6.370;2024-03-02T00:27:48;7.70;99.90
52509;DHT22;38420;53.150;6.370;2024-03-02T00:33:11;7.80;99.90
52509;DHT22;38420;53.150;6.370;2024-03-02T00:35:36;7.80;99.90
52509;DHT22;38420;53.150;6.370;2024-03-02T00:38:06;7.90;99.90
52509;DHT22;38420;53.150;6.370;2024-03-02T00:40:32;7.90;99.90
52509;DHT22;38420;53.150;6.370;2024-03-02T00:42:58;7.90;99.90
52509;DHT22;38420;53.150;6.370;2024-03-02T00:45:25;7.90;99.90
52509;DHT22;38420;53.150;6.370;2024-03-02T00:47:51;7.90;99.90
52509;DHT22;38420;53.150;6.370;2024-03-02T00:50:17;8.00;99.90
52509;DHT22;38420;53.150;6.370;2024-03-02T00:52:43;8.00;99.90
52509;DHT22;38420;53.150;6.370;2024-03-02T00:55:09;8.00;99.90
52509;DHT22;38420;53.150;6.370;2024-03-02T00:57:34;8.00;99.90
52509;DHT22;38420;53.150;6.370;2024-03-02T01:00:00;8.00;99.90
52509;DHT22;38420;53.150;6.370;2024-03-02T01:02:26;8.00;99.90
52509;DHT22;38420;53.150;6.370;2024-03-02T01:04:52;8.00;99.90
52509;DHT22;38420;53.150;6.370;2024-03-02T01:07:17;8.00;99.90
52509;DHT22;38420;53.150;6.370;2024-03-02T01:09:43;8.00;99.90
52509;DHT22;38420;53.150;6.370;2024-03-02T01:12:10;8.10;99.90
52509;DHT22;38420;53.150;6.370;2024-03-02T01:14:35;8.10;99.90
52509;DHT22;38420;53.150;6.370;2024-03-02T01:17:01;8.10;99.90
52509;DHT22;38420;53.150;6.370;2024-03-02T01:19:29;8.10;99.90
52509;DHT22;38420;53.150;6.370;2024-03-02T01:21:55;8.10;99.90
52509;DHT22;38420;53.150;6.370;2024-03-02T01:24:21;8.10;99.90
52509;DHT22;38420;53.150;6.370;2024-03-02T01:26:46;8.10;99.90
52509;DHT22;38420;53.150;6.370;2024-03-02T01:29:12;8.10;99.90
52509;DHT22;38420;53.150;6.370;2024-03-02T01:31:37;8.10;99.90
52509;DHT22;38420;53.150;6.370;2024-03-02T01:34:05;8.10;99.90
52509;DHT22;38420;53.150;6.370;2024-03-02T01:36:30;8.20;99.90
52509;DHT22;38420;53.150;6.370;2024-03-02T01:38:56;8.20;99.90
52509;DHT22;38420;53.150;6.370;2024-03-02T01:41:21;8.20;99.90
52509;DHT22;38420;53.150;6.370;2024-03-02T01:43:47;8.10;99.90
52509;DHT22;38420;53.150;6.370;2024-03-02T01:46:13;8.10;99.90
52509;DHT22;38420;53.150;6.370;2024-03-02T01:48:38;8.10;99.90
52509;DHT22;38420;53.150;6.370;2024-03-02T01:51:04;8.10;99.90
52509;DHT22;38420;53.150;6.370;2024-03-02T01:53:31;8.10;99.90
52509;DHT22;38420;53.150;6.370;2024-03-02T01:55:57;8.10;99.90
52509;DHT22;38420;53.150;6.370;2024-03-02T01:58:23;8.10;99.90
52509;DHT22;38420;53.150;6.370;2024-03-02T02:00:48;8.10;99.90
52509;DHT22;38420;53.150;6.370;2024-03-02T02:03:15;8.10;99.90
52509;DHT22;38420;53.150;6.370;2024-03-02T02:05:42;8.10;99.90
52509;DHT22;38420;53.150;6.370;2024-03-02T02:08:08;8.10;99.90
52509;DHT22;38420;53.150;6.370;2024-03-02T02:10:33;8.10;99.90
52509;DHT22;38420;53.150;6.370;2024-03-02T02:12:59;8.10;99.90
52509;DHT22;38420;53.150;6.370;2024-03-02T02:17:52;8.10;99.90
52509;DHT22;38420;53.150;6.370;2024-03-02T02:20:18;8.00;99.90
52509;DHT22;38420;53.150;6.370;2024-03-02T02:23:03;8.00;99.90
52509;DHT22;38420;53.150;6.370;2024-03-02T02:25:30;7.90;99.90
52509;DHT22;38420;53.150;6.370;2024-03-02T02:27:56;7.90;99.90
52509;DHT22;38420;53.150;6.370;2024-03-02T02:30:27;7.90;99.90
52509;DHT22;38420;53.150;6.370;2024-03-02T02:32:53;7.90;99.90
52509;DHT22;38420;53.150;6.370;2024-03-02T02:35:19;7.90;99.90
52509;DHT22;38420;53.150;6.370;2024-03-02T02:37:46;8.00;99.90
52509;DHT22;38420;53.150;6.370;2024-03-02T02:40:12;7.90;99.90
52509;DHT22;38420;53.150;6.370;2024-03-02T02:42:38;7.90;99.90
52509;DHT22;38420;53.150;6.370;2024-03-02T02:45:05;7.90;99.90
52509;DHT22;38420;53.150;6.370;2024-03-02T02:47:31;8.00;99.90
52509;DHT22;38420;53.150;6.370;2024-03-02T02:50:01;7.90;99.90
52509;DHT22;38420;53.150;6.370;2024-03-02T02:52:31;7.90;99.90
52509;DHT22;38420;53.150;6.370;2024-03-02T02:54:58;8.00;99.90
52509;DHT22;38420;53.150;6.370;2024-03-02T02:57:24;8.00;99.90
52509;DHT22;38420;53.150;6.370;2024-03-02T02:59:49;8.00;99.90
52509;DHT22;38420;53.150;6.370;2024-03-02T03:02:15;8.00;99.90
52509;DHT22;38420;53.150;6.370;2024-03-02T03:04:40;8.00;99.90
52509;DHT22;38420;53.150;6.370;2024-03-02T03:07:06;8.00;99.90
52509;DHT22;38420;53.150;6.370;2024-03-02T03:09:32;7.90;99.90
52509;DHT22;38420;53.150;6.370;2024-03-02T03:11:57;7.90;99.90
52509;DHT22;38420;53.150;6.370;2024-03-02T03:14:23;7.90;99.90
52509;DHT22;38420;53.150;6.370;2024-03-02T03:16:48;7.90;99.90
52509;DHT22;38420;53.150;6.370;2024-03-02T03:19:15;7.90;99.90
52509;DHT22;38420;53.150;6.370;2024-03-02T03:21:42;7.90;99.90
52509;DHT22;38420;53.150;6.370;2024-03-02T03:24:08;7.90;99.90
52509;DHT22;38420;53.150;6.370;2024-03-02T03:26:36;7.90;99.90
52509;DHT22;38420;53.150;6.370;2024-03-02T03:29:02;7.90;99.90
52509;DHT22;38420;53.150;6.370;2024-03-02T03:31:28;7.80;99.90
52509;DHT22;38420;53.150;6.370;2024-03-02T03:33:54;7.80;99.90
52509;DHT22;38420;53.150;6.370;2024-03-02T03:36:19;7.70;99.90
52509;DHT22;38420;53.150;6.370;2024-03-02T03:38:45;7.70;99.90
52509;DHT22;38420;53.150;6.370;2024-03-02T03:41:11;7.70;99.90
52509;DHT22;38420;53.150;6.370;2024-03-02T03:43:36;7.60;99.90
52509;DHT22;38420;53.150;6.370;2024-03-02T03:46:03;7.70;99.90
52509;DHT22;38420;53.150;6.370;2024-03-02T03:48:28;7.70;99.90
52509;DHT22;38420;53.150;6.370;2024-03-02T03:50:56;7.70;99.90
52509;DHT22;38420;53.150;6.370;2024-03-02T03:53:22;7.70;99.90
52509;DHT22;38420;53.150;6.370;2024-03-02T03:55:48;7.70;99.90
52509;DHT22;38420;53.150;6.370;2024-03-02T03:58:15;7.80;99.90
52509;DHT22;38420;53.150;6.370;2024-03-02T04:00:42;7.80;99.90
52509;DHT22;38420;53.150;6.370;2024-03-02T04:03:08;7.80;99.90
52509;DHT22;38420;53.150;6.370;2024-03-02T04:05:33;7.80;99.90
52509;DHT22;38420;53.150;6.370;2024-03-02T04:07:59;7.90;99.90
52509;DHT22;38420;53.150;6.370;2024-03-02T04:10:25;7.90;99.90
52509;DHT22;38420;53.150;6.370;2024-03-02T04:12:51;7.90;99.90
52509;DHT22;38420;53.150;6.370;2024-03-02T04:15:17;7.90;99.90
52509;DHT22;38420;53.150;6.370;2024-03-02T04:17:44;7.90;99.90
52509;DHT22;38420;53.150;6.370;2024-03-02T04:20:10;7.90;99.90
52509;DHT22;38420;53.150;6.370;2024-03-02T04:22:38;7.90;99.90
52509;DHT22;38420;53.150;6.370;2024-03-02T04:25:03;7.90;99.90
52509;DHT22;38420;53.150;6.370;2024-03-02T04:27:30;7.90;99.90
52509;DHT22;38420;53.150;6.370;2024-03-02T04:29:57;7.90;99.90
52509;DHT22;38420;53.150;6.370;2024-03-02T04:32:23;7.90;99.90
52509;DHT22;38420;53.150;6.370;2024-03-02T04:34:49;7.90;99.90
52509;DHT22;38420;53.150;6.370;2024-03-02T04:37:14;7.90;99.90
52509;DHT22;38420;53.150;6.370;2024-03-02T04:39:40;7.90;99.90
52509;DHT22;38420;53.150;6.370;2024-03-02T04:42:06;7.90;99.90
52509;DHT22;38420;53.150;6.370;2024-03-02T04:44:31;7.80;99.90
52509;DHT22;38420;53.150;6.370;2024-03-02T04:46:57;7.80;99.90
52509;DHT22;38420;53.150;6.370;2024-03-02T04:49:23;7.80;99.90
52509;DHT22;38420;53.150;6.370;2024-03-02T04:51:49;7.70;99.90
52509;DHT22;38420;53.150;6.370;2024-03-02T04:54:14;7.80;99.90
52509;DHT22;38420;53.150;6.370;2024-03-02T04:56:40;7.70;99.90
52509;DHT22;38420;53.150;6.370;2024-03-02T04:59:10;7.70;99.90
52509;DHT22;38420;53.150;6.370;2024-03-02T05:01:36;7.70;99.90
52509;DHT22;38420;53.150;6.370;2024-03-02T05:04:01;7.80;99.90
52509;DHT22;38420;53.150;6.370;2024-03-02T05:06:27;7.80;99.90
52509;DHT22;38420;53.150;6.370;2024-03-02T05:08:52;7.70;99.90
52509;DHT22;38420;53.150;6.370;2024-03-02T05:11:18;7.70;99.90
52509;DHT22;38420;53.150;6.370;2024-03-02T05:14:03;7.70;99.90
52509;DHT22;38420;53.150;6.370;2024-03-02T05:16:28;7.60;99.90
52509;DHT22;38420;53.150;6.370;2024-03-02T05:18:54;7.60;99.90
52509;DHT22;38420;53.150;6.370;2024-03-02T05:21:19;7.50;99.90
52509;DHT22;38420;53.150;6.370;2024-03-02T05:23:45;7.50;99.90
52509;DHT22;38420;53.150;6.370;2024-03-02T05:26:11;7.50;99.90
52509;DHT22;38420;53.150;6.370;2024-03-02T05:28:38;7.50;99.90
52509;DHT22;38420;53.150;6.370;2024-03-02T05:31:04;7.40;99.90
52509;DHT22;38420;53.150;6.370;2024-03-02T05:33:30;7.80;99.90
52509;DHT22;38420;53.150;6.370;2024-03-02T05:35:58;7.50;99.90
52509;DHT22;38420;53.150;6.370;2024-03-02T05:38:24;7.50;99.90
52509;DHT22;38420;53.150;6.370;2024-03-02T05:40:49;7.50;99.90
52509;DHT22;38420;53.150;6.370;2024-03-02T05:43:15;7.50;99.90
52509;DHT22;38420;53.150;6.370;2024-03-02T05:45:41;7.50;99.90
52509;DHT22;38420;53.150;6.370;2024-03-02T05:48:07;7.60;99.90
52509;DHT22;38420;53.150;6.370;2024-03-02T05:50:33;7.60;99.90
52509;DHT22;38420;53.150;6.370;2024-03-02T05:52:59;7.60;99.90
52509;DHT22;38420;53.150;6.370;2024-03-02T05:55:24;7.60;99.90
52509;DHT22;38420;53.150;6.370;2024-03-02T05:57:50;7.60;99.90
52509;DHT22;38420;53.150;6.370;2024-03-02T06:00:31;7.50;99.90
52509;DHT22;38420;53.150;6.370;2024-03-02T06:02:56;7.50;99.90
52509;DHT22;38420;53.150;6.370;2024-03-02T06:05:22;7.50;99.90
52509;DHT22;38420;53.150;6.370;2024-03-02T06:07:48;7.50;99.90
52509;DHT22;38420;53.150;6.370;2024-03-02T06:10:13;7.50;99.90
52509;DHT22;38420;53.150;6.370;2024-03-02T06:12:39;7.50;99.90
52509;DHT22;38420;53.150;6.370;2024-03-02T06:15:05;7.50;99.90
52509;DHT22;38420;53.150;6.370;2024-03-02T06:17:31;7.50;99.90
52509;DHT22;38420;53.150;6.370;2024-03-02T06:19:57;7.50;99.90
52509;DHT22;38420;53.150;6.370;2024-03-02T06:22:23;7.50;99.90
52509;DHT22;38420;53.150;6.370;2024-03-02T06:24:50;7.40;99.90
52509;DHT22;38420;53.150;6.370;2024-03-02T06:27:16;7.40;99.90
52509;DHT22;38420;53.150;6.370;2024-03-02T06:29:41;7.30;99.90
52509;DHT22;38420;53.150;6.370;2024-03-02T06:32:07;7.40;99.90
52509;DHT22;38420;53.150;6.370;2024-03-02T06:34:33;7.40;99.90
52509;DHT22;38420;53.150;6.370;2024-03-02T06:36:58;7.30;99.90
52509;DHT22;38420;53.150;6.370;2024-03-02T06:39:24;7.30;99.90
52509;DHT22;38420;53.150;6.370;2024-03-02T06:41:51;7.40;99.90
52509;DHT22;38420;53.150;6.370;2024-03-02T06:44:17;7.30;99.90
52509;DHT22;38420;53.150;6.370;2024-03-02T06:46:42;7.30;99.90
52509;DHT22;38420;53.150;6.370;2024-03-02T06:49:08;7.30;99.90
52509;DHT22;38420;53.150;6.370;2024-03-02T06:51:35;7.30;99.90
52509;DHT22;38420;53.150;6.370;2024-03-02T06:54:01;7.30;99.90
52509;DHT22;38420;53.150;6.370;2024-03-02T06:56:27;7.30;99.90
52509;DHT22;38420;53.150;6.370;2024-03-02T06:58:52;7.20;99.90
52509;DHT22;38420;53.150;6.370;2024-03-02T07:01:18;7.20;99.90
52509;DHT22;38420;53.150;6.370;2024-03-02T07:03:43;7.20;99.90
52509;DHT22;38420;53.150;6.370;2024-03-02T07:06:09;7.20;99.90
52509;DHT22;38420;53.150;6.370;2024-03-02T07:08:35;7.20;99.90
52509;DHT22;38420;53.150;6.370;2024-03-02T07:11:00;7.20;99.90
52509;DHT22;38420;53.150;6.370;2024-03-02T07:13:26;7.10;99.90
52509;DHT22;38420;53.150;6.370;2024-03-02T07:15:52;7.10;99.90
52509;DHT22;38420;53.150;6.370;2024-03-02T07:18:36;7.10;99.90
52509;DHT22;38420;53.150;6.370;2024-03-02T07:21:10;7.10;99.90
52509;DHT22;38420;53.150;6.370;2024-03-02T07:23:36;7.10;99.90
52509;DHT22;38420;53.150;6.370;2024-03-02T07:26:02;7.00;99.90
52509;DHT22;38420;53.150;6.370;2024-03-02T07:28:29;7.10;99.90
52509;DHT22;38420;53.150;6.370;2024-03-02T07:30:59;7.00;99.90
52509;DHT22;38420;53.150;6.370;2024-03-02T07:33:24;7.00;99.90
52509;DHT22;38420;53.150;6.370;2024-03-02T07:35:50;6.90;99.90
52509;DHT22;38420;53.150;6.370;2024-03-02T07:38:15;6.90;99.90
52509;DHT22;38420;53.150;6.370;2024-03-02T07:40:42;6.90;99.90
52509;DHT22;38420;53.150;6.370;2024-03-02T07:43:07;6.80;99.90
52509;DHT22;38420;53.150;6.370;2024-03-02T07:45:34;6.90;99.90
52509;DHT22;38420;53.150;6.370;2024-03-02T07:48:01;6.90;99.90
52509;DHT22;38420;53.150;6.370;2024-03-02T07:50:28;7.00;99.90
52509;DHT22;38420;53.150;6.370;2024-03-02T07:52:54;7.00;99.90
52509;DHT22;38420;53.150;6.370;2024-03-02T07:55:20;7.10;99.90
52509;DHT22;38420;53.150;6.370;2024-03-02T07:57:45;7.10;99.90
52509;DHT22;38420;53.150;6.370;2024-03-02T08:00:11;7.20;99.90
52509;DHT22;38420;53.150;6.370;2024-03-02T08:02:37;7.40;99.90
52509;DHT22;38420;53.150;6.370;2024-03-02T08:05:02;7.60;99.90
52509;DHT22;38420;53.150;6.370;2024-03-02T08:07:28;7.60;99.90
52509;DHT22;38420;53.150;6.370;2024-03-02T08:09:54;7.70;99.90
52509;DHT22;38420;53.150;6.370;2024-03-02T08:12:19;7.70;99.90
52509;DHT22;38420;53.150;6.370;2024-03-02T08:14:47;7.70;99.90
52509;DHT22;38420;53.150;6.370;2024-03-02T08:17:12;7.80;99.90
52509;DHT22;38420;53.150;6.370;2024-03-02T08:19:44;7.90;99.90
52509;DHT22;38420;53.150;6.370;2024-03-02T08:22:10;7.90;99.90
52509;DHT22;38420;53.150;6.370;2024-03-02T08:24:36;7.90;99.90
52509;DHT22;38420;53.150;6.370;2024-03-02T08:27:01;8.10;99.90
52509;DHT22;38420;53.150;6.370;2024-03-02T08:29:27;8.10;99.90
52509;DHT22;38420;53.150;6.370;2024-03-02T08:31:53;8.20;99.90
52509;DHT22;38420;53.150;6.370;2024-03-02T08:34:19;8.20;99.90
52509;DHT22;38420;53.150;6.370;2024-03-02T08:36:45;8.30;99.90
52509;DHT22;38420;53.150;6.370;2024-03-02T08:39:11;8.40;99.90
52509;DHT22;38420;53.150;6.370;2024-03-02T08:41:49;8.50;99.90
52509;DHT22;38420;53.150;6.370;2024-03-02T08:44:16;8.40;99.90
52509;DHT22;38420;53.150;6.370;2024-03-02T08:46:42;8.30;99.90
52509;DHT22;38420;53.150;6.370;2024-03-02T08:49:07;8.30;99.90
52509;DHT22;38420;53.150;6.370;2024-03-02T08:51:33;8.30;99.90
52509;DHT22;38420;53.150;6.370;2024-03-02T08:53:59;8.30;99.90
52509;DHT22;38420;53.150;6.370;2024-03-02T08:56:25;8.30;99.90
52509;DHT22;38420;53.150;6.370;2024-03-02T08:58:51;8.40;99.90
52509;DHT22;38420;53.150;6.370;2024-03-02T09:01:17;8.50;99.90
52509;DHT22;38420;53.150;6.370;2024-03-02T09:03:43;8.70;99.90
52509;DHT22;38420;53.150;6.370;2024-03-02T09:06:13;8.80;99.90
52509;DHT22;38420;53.150;6.370;2024-03-02T09:08:39;8.90;99.90
52509;DHT22;38420;53.150;6.370;2024-03-02T09:11:06;9.00;99.90
52509;DHT22;38420;53.150;6.370;2024-03-02T09:13:33;9.00;99.90
52509;DHT22;38420;53.150;6.370;2024-03-02T09:15:59;8.90;99.90
52509;DHT22;38420;53.150;6.370;2024-03-02T09:18:24;8.90;99.90
52509;DHT22;38420;53.150;6.370;2024-03-02T09:20:50;8.80;99.90
52509;DHT22;38420;53.150;6.370;2024-03-02T09:23:15;8.80;99.90
52509;DHT22;38420;53.150;6.370;2024-03-02T09:25:41;8.70;99.90
52509;DHT22;38420;53.150;6.370;2024-03-02T09:28:07;8.70;99.90
52509;DHT22;38420;53.150;6.370;2024-03-02T09:30:33;8.70;99.90
52509;DHT22;38420;53.150;6.370;2024-03-02T09:32:58;8.60;99.90
52509;DHT22;38420;53.150;6.370;2024-03-02T09:35:24;8.60;99.90
52509;DHT22;38420;53.150;6.370;2024-03-02T09:37:50;8.70;99.90
52509;DHT22;38420;53.150;6.370;2024-03-02T09:40:15;8.80;99.90
52509;DHT22;38420;53.150;6.370;2024-03-02T09:42:42;8.80;99.90
52509;DHT22;38420;53.150;6.370;2024-03-02T09:45:09;8.80;99.90
52509;DHT22;38420;53.150;6.370;2024-03-02T09:47:34;8.70;99.90
52509;DHT22;38420;53.150;6.370;2024-03-02T09:50:00;8.70;99.90
52509;DHT22;38420;53.150;6.370;2024-03-02T09:52:26;8.70;99.90
52509;DHT22;38420;53.150;6.370;2024-03-02T09:54:52;8.80;99.90
52509;DHT22;38420;53.150;6.370;2024-03-02T09:57:18;8.80;99.90
52509;DHT22;38420;53.150;6.370;2024-03-02T09:59:43;8.80;99.90
52509;DHT22;38420;53.150;6.370;2024-03-02T10:02:10;8.90;99.90
52509;DHT22;38420;53.150;6.370;2024-03-02T10:04:36;9.00;99.90
52509;DHT22;38420;53.150;6.370;2024-03-02T10:07:15;9.20;99.90
52509;DHT22;38420;53.150;6.370;2024-03-02T10:09:42;9.40;99.90
52509;DHT22;38420;53.150;6.370;2024-03-02T10:12:09;9.40;99.90
52509;DHT22;38420;53.150;6.370;2024-03-02T10:14:35;9.50;99.90
52509;DHT22;38420;53.150;6.370;2024-03-02T10:17:08;9.50;99.90
52509;DHT22;38420;53.150;6.370;2024-03-02T10:19:35;9.50;99.90
52509;DHT22;38420;53.150;6.370;2024-03-02T10:22:03;9.60;99.90
52509;DHT22;38420;53.150;6.370;2024-03-02T10:24:39;9.60;99.90
52509;DHT22;38420;53.150;6.370;2024-03-02T10:27:16;9.60;99.90
52509;DHT22;38420;53.150;6.370;2024-03-02T10:29:42;9.60;99.90
52509;DHT22;38420;53.150;6.370;2024-03-02T10:32:11;9.60;99.90
52509;DHT22;38420;53.150;6.370;2024-03-02T10:34:39;9.70;99.90
52509;DHT22;38420;53.150;6.370;2024-03-02T10:37:05;9.80;99.90
52509;DHT22;38420;53.150;6.370;2024-03-02T10:39:34;9.80;99.90
52509;DHT22;38420;53.150;6.370;2024-03-02T10:42:02;9.90;99.90
52509;DHT22;38420;53.150;6.370;2024-03-02T10:44:28;10.00;99.90
52509;DHT22;38420;53.150;6.370;2024-03-02T10:46:55;10.20;99.90
52509;DHT22;38420;53.150;6.370;2024-03-02T10:49:23;10.30;99.90
52509;DHT22;38420;53.150;6.370;2024-03-02T10:51:49;10.40;99.90
52509;DHT22;38420;53.150;6.370;2024-03-02T10:54:15;10.60;99.90
52509;DHT22;38420;53.150;6.370;2024-03-02T10:56:42;10.70;99.90
52509;DHT22;38420;53.150;6.370;2024-03-02T10:59:32;10.70;99.90
52509;DHT22;38420;53.150;6.370;2024-03-02T11:02:00;10.60;99.90
52509;DHT22;38420;53.150;6.370;2024-03-02T11:04:26;10.70;99.90
52509;DHT22;38420;53.150;6.370;2024-03-02T11:09:28;10.80;99.90
52509;DHT22;38420;53.150;6.370;2024-03-02T11:12:15;11.00;99.90
52509;DHT22;38420;53.150;6.370;2024-03-02T11:14:44;11.10;99.90
52509;DHT22;38420;53.150;6.370;2024-03-02T11:17:11;11.10;99.90
52509;DHT22;38420;53.150;6.370;2024-03-02T11:19:39;11.60;99.90
52509;DHT22;38420;53.150;6.370;2024-03-02T11:22:06;11.00;99.90
52509;DHT22;38420;53.150;6.370;2024-03-02T11:24:32;11.00;99.90
52509;DHT22;38420;53.150;6.370;2024-03-02T11:27:02;10.90;99.90
52509;DHT22;38420;53.150;6.370;2024-03-02T11:32:18;10.90;99.90
52509;DHT22;38420;53.150;6.370;2024-03-02T11:34:47;10.90;99.90
52509;DHT22;38420;53.150;6.370;2024-03-02T11:37:18;10.90;99.90
52509;DHT22;38420;53.150;6.370;2024-03-02T11:39:48;10.80;99.90
52509;DHT22;38420;53.150;6.370;2024-03-02T11:42:15;10.90;99.90
52509;DHT22;38420;53.150;6.370;2024-03-02T11:44:47;11.10;99.90
52509;DHT22;38420;53.150;6.370;2024-03-02T11:47:15;11.30;99.90
52509;DHT22;38420;53.150;6.370;2024-03-02T11:49:53;11.30;99.90
52509;DHT22;38420;53.150;6.370;2024-03-02T11:52:20;11.30;99.90
52509;DHT22;38420;53.150;6.370;2024-03-02T11:54:48;11.30;99.90
52509;DHT22;38420;53.150;6.370;2024-03-02T11:57:19;11.30;99.90
52509;DHT22;38420;53.150;6.370;2024-03-02T11:59:46;11.20;99.90
52509;DHT22;38420;53.150;6.370;2024-03-02T12:02:16;11.10;99.90
52509;DHT22;38420;53.150;6.370;2024-03-02T12:04:43;11.10;99.90
52509;DHT22;38420;53.150;6.370;2024-03-02T12:07:09;11.10;99.90
52509;DHT22;38420;53.150;6.370;2024-03-02T12:09:34;11.00;99.90
52509;DHT22;38420;53.150;6.370;2024-03-02T12:12:04;11.00;99.90
52509;DHT22;38420;53.150;6.370;2024-03-02T12:14:31;11.20;99.90
52509;DHT22;38420;53.150;6.370;2024-03-02T12:16:57;11.30;99.90
52509;DHT22;38420;53.150;6.370;2024-03-02T12:19:25;11.40;99.90
52509;DHT22;38420;53.150;6.370;2024-03-02T12:21:52;11.60;99.90
52509;DHT22;38420;53.150;6.370;2024-03-02T12:24:17;11.60;99.90
52509;DHT22;38420;53.150;6.370;2024-03-02T12:26:44;11.70;99.90
52509;DHT22;38420;53.150;6.370;2024-03-02T12:29:10;11.90;99.90
52509;DHT22;38420;53.150;6.370;2024-03-02T12:31:35;12.00;99.90
52509;DHT22;38420;53.150;6.370;2024-03-02T12:34:03;12.00;99.90
52509;DHT22;38420;53.150;6.370;2024-03-02T12:36:28;12.00;99.90
52509;DHT22;38420;53.150;6.370;2024-03-02T12:38:54;12.10;99.90
52509;DHT22;38420;53.150;6.370;2024-03-02T12:41:20;12.10;99.90
52509;DHT22;38420;53.150;6.370;2024-03-02T12:43:46;12.20;99.90
52509;DHT22;38420;53.150;6.370;2024-03-02T12:46:12;12.10;99.90
52509;DHT22;38420;53.150;6.370;2024-03-02T12:48:38;12.30;99.90
52509;DHT22;38420;53.150;6.370;2024-03-02T12:51:06;12.40;99.90
52509;DHT22;38420;53.150;6.370;2024-03-02T12:53:32;13.20;99.90
52509;DHT22;38420;53.150;6.370;2024-03-02T12:55:58;12.40;99.90
52509;DHT22;38420;53.150;6.370;2024-03-02T12:58:24;12.50;99.90
52509;DHT22;38420;53.150;6.370;2024-03-02T13:00:49;12.50;99.90
52509;DHT22;38420;53.150;6.370;2024-03-02T13:03:18;12.50;99.90
52509;DHT22;38420;53.150;6.370;2024-03-02T13:05:49;12.60;99.90
52509;DHT22;38420;53.150;6.370;2024-03-02T13:08:15;12.50;99.90
52509;DHT22;38420;53.150;6.370;2024-03-02T13:10:41;12.50;99.90
52509;DHT22;38420;53.150;6.370;2024-03-02T13:13:07;12.60;99.90
52509;DHT22;38420;53.150;6.370;2024-03-02T13:15:33;12.70;99.90
52509;DHT22;38420;53.150;6.370;2024-03-02T13:17:59;13.00;99.90
52509;DHT22;38420;53.150;6.370;2024-03-02T13:20:31;12.80;99.90
52509;DHT22;38420;53.150;6.370;2024-03-02T13:22:57;12.80;99.90
52509;DHT22;38420;53.150;6.370;2024-03-02T13:25:23;12.80;99.90
52509;DHT22;38420;53.150;6.370;2024-03-02T13:27:48;12.70;99.90
52509;DHT22;38420;53.150;6.370;2024-03-02T13:30:14;12.90;99.90
52509;DHT22;38420;53.150;6.370;2024-03-02T13:32:40;12.90;99.90
52509;DHT22;38420;53.150;6.370;2024-03-02T13:35:08;13.00;99.90
52509;DHT22;38420;53.150;6.370;2024-03-02T13:37:36;13.30;99.90
52509;DHT22;38420;53.150;6.370;2024-03-02T13:40:02;13.20;99.90
52509;DHT22;38420;53.150;6.370;2024-03-02T13:42:29;13.10;99.90
52509;DHT22;38420;53.150;6.370;2024-03-02T13:44:55;13.10;99.90
52509;DHT22;38420;53.150;6.370;2024-03-02T13:47:20;13.00;99.90
52509;DHT22;38420;53.150;6.370;2024-03-02T13:49:46;12.90;99.90
52509;DHT22;38420;53.150;6.370;2024-03-02T13:52:14;12.90;99.90
52509;DHT22;38420;53.150;6.370;2024-03-02T13:54:41;12.90;99.90
52509;DHT22;38420;53.150;6.370;2024-03-02T13:57:08;12.80;99.90
52509;DHT22;38420;53.150;6.370;2024-03-02T13:59:35;12.90;99.90
52509;DHT22;38420;53.150;6.370;2024-03-02T14:02:01;12.70;99.90
52509;DHT22;38420;53.150;6.370;2024-03-02T14:04:30;12.50;99.90
52509;DHT22;38420;53.150;6.370;2024-03-02T14:06:55;13.30;99.90
52509;DHT22;38420;53.150;6.370;2024-03-02T14:09:21;12.30;99.90
52509;DHT22;38420;53.150;6.370;2024-03-02T14:11:47;12.20;99.90
52509;DHT22;38420;53.150;6.370;2024-03-02T14:14:14;12.10;99.90
52509;DHT22;38420;53.150;6.370;2024-03-02T14:16:40;12.10;99.90
52509;DHT22;38420;53.150;6.370;2024-03-02T14:19:06;12.20;99.90
52509;DHT22;38420;53.150;6.370;2024-03-02T14:21:31;12.10;99.90
52509;DHT22;38420;53.150;6.370;2024-03-02T14:23:57;12.10;99.90
52509;DHT22;38420;53.150;6.370;2024-03-02T14:26:23;12.10;99.90
52509;DHT22;38420;53.150;6.370;2024-03-02T14:28:48;12.10;99.90
52509;DHT22;38420;53.150;6.370;2024-03-02T14:31:14;12.10;99.90
52509;DHT22;38420;53.150;6.370;2024-03-02T14:33:39;12.10;99.90
52509;DHT22;38420;53.150;6.370;2024-03-02T14:36:05;12.10;99.90
52509;DHT22;38420;53.150;6.370;2024-03-02T14:38:31;12.10;99.90
52509;DHT22;38420;53.150;6.370;2024-03-02T14:40:57;12.10;99.90
52509;DHT22;38420;53.150;6.370;2024-03-02T14:43:23;12.10;99.90
52509;DHT22;38420;53.150;6.370;2024-03-02T14:45:49;12.20;99.90
52509;DHT22;38420;53.150;6.370;2024-03-02T14:48:14;12.20;99.90
52509;DHT22;38420;53.150;6.370;2024-03-02T14:50:40;12.30;99.90
52509;DHT22;38420;53.150;6.370;2024-03-02T14:53:07;12.30;99.90
52509;DHT22;38420;53.150;6.370;2024-03-02T14:55:33;12.40;99.90
52509;DHT22;38420;53.150;6.370;2024-03-02T14:57:59;12.80;99.90
52509;DHT22;38420;53.150;6.370;2024-03-02T15:00:25;12.60;99.90
52509;DHT22;38420;53.150;6.370;2024-03-02T15:02:51;12.60;99.90
52509;DHT22;38420;53.150;6.370;2024-03-02T15:05:17;12.70;99.90
52509;DHT22;38420;53.150;6.370;2024-03-02T15:07:43;12.80;99.90
52509;DHT22;38420;53.150;6.370;2024-03-02T15:10:09;12.90;99.90
52509;DHT22;38420;53.150;6.370;2024-03-02T15:12:34;12.90;99.90
52509;DHT22;38420;53.150;6.370;2024-03-02T15:15:00;12.90;99.90
52509;DHT22;38420;53.150;6.370;2024-03-02T15:17:25;12.90;99.90
52509;DHT22;38420;53.150;6.370;2024-03-02T15:19:51;13.10;99.90
52509;DHT22;38420;53.150;6.370;2024-03-02T15:22:17;13.00;99.90
52509;DHT22;38420;53.150;6.370;2024-03-02T15:24:42;13.10;99.90
52509;DHT22;38420;53.150;6.370;2024-03-02T15:27:09;13.20;99.90
52509;DHT22;38420;53.150;6.370;2024-03-02T15:29:35;13.30;99.90
52509;DHT22;38420;53.150;6.370;2024-03-02T15:32:04;13.40;99.90
52509;DHT22;38420;53.150;6.370;2024-03-02T15:34:33;13.40;99.90
52509;DHT22;38420;53.150;6.370;2024-03-02T15:36:59;13.40;99.90
52509;DHT22;38420;53.150;6.370;2024-03-02T15:39:25;13.50;99.90
52509;DHT22;38420;53.150;6.370;2024-03-02T15:41:51;13.50;99.90
52509;DHT22;38420;53.150;6.370;2024-03-02T15:44:17;13.40;99.90
52509;DHT22;38420;53.150;6.370;2024-03-02T15:46:43;13.40;99.90
52509;DHT22;38420;53.150;6.370;2024-03-02T15:49:09;13.30;99.90